createdAt,value
2018-10-11T00:01:09.347Z,14.77
2018-10-11T00:04:12.226Z,14.90
2018-10-11T00:07:15.266Z,14.98
2018-10-11T00:10:18.214Z,14.94
2018-10-11T00:13:21.184Z,15.06
2018-10-11T00:16:24.161Z,15.03
2018-10-11T00:19:27.128Z,15.03
2018-10-11T00:22:30.116Z,14.97
2018-10-11T00:25:33.109Z,14.88
2018-10-11T00:28:36.101Z,14.83
2018-10-11T00:31:39.102Z,14.78
2018-10-11T00:34:42.023Z,14.78
2018-10-11T00:37:45.000Z,14.75
2018-10-11T00:40:47.974Z,14.61
2018-10-11T00:43:50.929Z,14.64
2018-10-11T00:46:53.897Z,14.51
2018-10-11T00:49:56.846Z,14.31
2018-10-11T00:52:59.783Z,14.37
2018-10-11T00:56:02.781Z,14.35
2018-10-11T00:59:06.001Z,14.43
2018-10-11T01:02:09.054Z,14.50
2018-10-11T01:05:12.040Z,14.48
2018-10-11T01:08:14.950Z,14.45
2018-10-11T01:11:17.983Z,14.40
2018-10-11T01:14:20.915Z,14.52
2018-10-11T01:17:24.094Z,14.60
2018-10-11T01:20:27.136Z,14.64
2018-10-11T01:23:30.043Z,14.57
2018-10-11T01:26:33.042Z,14.31
2018-10-11T01:29:35.977Z,14.46
2018-10-11T01:32:38.869Z,14.56
2018-10-11T01:35:41.782Z,14.53
2018-10-11T01:38:46.495Z,14.68
2018-10-11T01:41:49.577Z,14.74
2018-10-11T01:44:52.637Z,14.73
2018-10-11T01:47:55.837Z,14.56
2018-10-11T01:50:58.809Z,14.45
2018-10-11T01:54:01.852Z,14.67
2018-10-11T01:57:04.877Z,14.91
2018-10-11T02:00:07.901Z,14.84
2018-10-11T02:03:10.843Z,14.68
2018-10-11T02:06:13.782Z,14.82
2018-10-11T02:09:16.740Z,15.08
2018-10-11T02:12:19.718Z,15.15
2018-10-11T02:15:22.986Z,15.47
2018-10-11T02:18:25.939Z,15.39
2018-10-11T02:21:28.888Z,15.52
2018-10-11T02:24:32.029Z,15.36
2018-10-11T02:27:34.961Z,15.35
2018-10-11T02:30:37.987Z,15.39
2018-10-11T02:33:40.962Z,15.42
2018-10-11T02:36:43.947Z,15.36
2018-10-11T02:39:46.897Z,15.44
2018-10-11T02:42:49.853Z,15.41
2018-10-11T02:45:52.764Z,15.53
2018-10-11T02:48:55.720Z,15.53
2018-10-11T02:51:58.741Z,15.55
2018-10-11T02:55:01.831Z,15.53
2018-10-11T02:58:22.157Z,15.38
2018-10-11T03:01:25.158Z,15.40
2018-10-11T03:04:30.491Z,15.52
2018-10-11T03:07:33.523Z,15.36
2018-10-11T03:10:36.558Z,15.28
2018-10-11T03:13:39.543Z,15.36
2018-10-11T03:16:42.568Z,15.40
2018-10-11T03:19:45.521Z,15.19
2018-10-11T03:22:48.466Z,15.03
2018-10-11T03:25:51.459Z,14.91
2018-10-11T03:28:54.434Z,14.91
2018-10-11T03:31:57.417Z,14.88
2018-10-11T03:35:00.335Z,14.78
2018-10-11T03:38:03.323Z,14.77
2018-10-11T03:41:06.468Z,14.80
2018-10-11T03:44:09.397Z,14.74
2018-10-11T03:47:12.315Z,14.64
2018-10-11T03:50:15.233Z,14.54
2018-10-11T03:53:18.253Z,14.64
2018-10-11T03:56:21.206Z,14.54
2018-10-11T03:59:24.940Z,14.59
2018-10-11T04:02:27.955Z,14.46
2018-10-11T04:05:30.873Z,14.47
2018-10-11T04:08:33.834Z,14.53
2018-10-11T04:11:36.824Z,14.42
2018-10-11T04:14:39.798Z,14.44
2018-10-11T04:17:42.737Z,14.40
2018-10-11T04:20:45.692Z,14.46
2018-10-11T04:23:48.629Z,14.37
2018-10-11T04:26:51.571Z,14.28
2018-10-11T04:29:54.565Z,14.38
2018-10-11T04:32:57.500Z,14.25
2018-10-11T04:36:00.482Z,14.31
2018-10-11T04:39:04.630Z,14.40
2018-10-11T04:42:07.827Z,14.31
2018-10-11T04:45:10.799Z,14.23
2018-10-11T04:48:13.722Z,14.23
2018-10-11T04:51:16.708Z,14.08
2018-10-11T04:54:19.668Z,14.04
2018-10-11T04:57:22.594Z,13.97
2018-10-11T05:00:26.171Z,14.00
2018-10-11T05:03:29.105Z,14.04
2018-10-11T05:06:32.076Z,14.03
2018-10-11T05:09:35.109Z,14.21
2018-10-11T05:12:38.126Z,14.01
2018-10-11T05:15:42.329Z,14.13
2018-10-11T05:18:48.491Z,14.11
2018-10-11T05:21:51.488Z,14.11
2018-10-11T05:24:54.558Z,14.07
2018-10-11T05:27:57.501Z,14.12
2018-10-11T05:31:00.789Z,14.04
2018-10-11T05:34:03.813Z,13.89
2018-10-11T05:37:06.809Z,13.83
2018-10-11T05:40:09.845Z,13.96
2018-10-11T05:43:13.481Z,13.83
2018-10-11T05:46:31.597Z,13.73
2018-10-11T05:49:34.641Z,13.67
2018-10-11T05:52:37.732Z,13.69
2018-10-11T05:55:41.047Z,13.80
2018-10-11T05:58:44.379Z,13.78
2018-10-11T06:01:47.769Z,13.74
2018-10-11T06:04:50.845Z,13.81
2018-10-11T06:07:54.049Z,13.79
2018-10-11T06:10:57.100Z,13.89
2018-10-11T06:14:00.167Z,13.90
2018-10-11T06:17:03.170Z,13.69
2018-10-11T06:20:06.250Z,13.93
2018-10-11T06:23:09.395Z,13.80
2018-10-11T06:26:12.938Z,13.79
2018-10-11T06:29:16.183Z,13.82
2018-10-11T06:32:19.208Z,13.86
2018-10-11T06:35:22.261Z,13.73
2018-10-11T06:38:25.306Z,13.92
2018-10-11T06:41:28.433Z,13.97
2018-10-11T06:44:31.582Z,13.88
2018-10-11T06:47:34.614Z,13.97
2018-10-11T06:50:37.803Z,14.05
2018-10-11T06:53:40.910Z,14.01
2018-10-11T06:56:43.826Z,14.05
2018-10-11T06:59:46.831Z,13.92
2018-10-11T07:02:49.755Z,13.97
2018-10-11T07:05:52.716Z,13.91
2018-10-11T07:08:55.687Z,13.97
2018-10-11T07:11:58.718Z,13.92
2018-10-11T07:15:01.716Z,14.65
2018-10-11T07:18:04.758Z,14.80
2018-10-11T07:21:07.925Z,14.23
2018-10-11T07:24:10.881Z,14.05
2018-10-11T07:27:13.881Z,14.10
2018-10-11T07:30:16.848Z,14.03
2018-10-11T07:33:19.783Z,14.11
2018-10-11T07:36:22.733Z,14.07
2018-10-11T07:39:25.690Z,14.31
2018-10-11T07:42:28.639Z,14.23
2018-10-11T07:45:31.672Z,14.32
2018-10-11T07:48:34.626Z,14.51
2018-10-11T07:51:37.634Z,14.60
2018-10-11T07:54:40.586Z,15.02
2018-10-11T07:57:43.517Z,15.57
2018-10-11T08:00:46.464Z,15.93
2018-10-11T08:03:49.397Z,15.94
2018-10-11T08:06:52.452Z,15.95
2018-10-11T08:09:55.437Z,15.80
2018-10-11T08:12:58.424Z,15.84
2018-10-11T08:16:01.417Z,16.08
2018-10-11T08:19:04.661Z,16.14
2018-10-11T08:22:07.338Z,16.19
2018-10-11T08:25:10.387Z,16.33
2018-10-11T08:28:13.204Z,16.36
2018-10-11T08:31:16.200Z,16.41
2018-10-11T08:34:19.132Z,16.57
2018-10-11T08:37:22.200Z,16.72
2018-10-11T08:40:25.173Z,16.75
2018-10-11T08:43:28.142Z,16.76
2018-10-11T08:46:31.086Z,16.82
2018-10-11T08:49:33.998Z,16.87
2018-10-11T08:52:36.917Z,17.05
2018-10-11T08:55:39.982Z,17.02
2018-10-11T08:58:42.854Z,17.33
2018-10-11T09:01:45.873Z,17.16
2018-10-11T09:04:48.865Z,17.20
2018-10-11T09:07:51.876Z,17.27
2018-10-11T09:10:54.943Z,17.56
2018-10-11T09:13:57.846Z,17.56
2018-10-11T09:17:00.800Z,17.74
2018-10-11T09:20:04.077Z,17.25
2018-10-11T09:23:07.093Z,17.59
2018-10-11T09:26:10.020Z,17.61
2018-10-11T09:29:13.071Z,17.75
2018-10-11T09:32:16.022Z,17.78
2018-10-11T09:35:19.021Z,17.90
2018-10-11T09:38:21.979Z,17.65
2018-10-11T09:41:24.920Z,17.90
2018-10-11T09:44:27.889Z,18.11
2018-10-11T09:47:30.834Z,18.11
2018-10-11T09:50:33.845Z,18.44
2018-10-11T09:53:36.883Z,18.36
2018-10-11T09:57:49.687Z,18.00
2018-10-11T10:00:58.181Z,18.28
2018-10-11T10:04:01.110Z,18.31
2018-10-11T10:07:04.069Z,18.45
2018-10-11T10:10:07.494Z,18.31
2018-10-11T10:13:10.548Z,18.46
2018-10-11T10:16:13.538Z,18.48
2018-10-11T10:19:16.521Z,18.47
2018-10-11T10:22:19.478Z,18.70
2018-10-11T10:25:22.411Z,19.15
2018-10-11T10:28:25.348Z,19.09
2018-10-11T10:31:28.247Z,19.72
2018-10-11T10:34:31.218Z,19.80
2018-10-11T10:37:34.220Z,19.79
2018-10-11T10:40:37.133Z,19.60
2018-10-11T10:43:40.101Z,19.58
2018-10-11T10:46:43.045Z,19.77
2018-10-11T10:49:46.016Z,20.12
2018-10-11T10:52:48.929Z,20.61
2018-10-11T10:55:51.858Z,20.31
2018-10-11T10:58:54.873Z,21.07
2018-10-11T11:01:57.843Z,21.27
2018-10-11T11:05:00.811Z,21.38
2018-10-11T11:08:03.770Z,20.95
2018-10-11T11:11:06.944Z,21.36
2018-10-11T11:14:10.857Z,21.87
2018-10-11T11:17:13.810Z,21.46
2018-10-11T11:20:16.985Z,20.87
2018-10-11T11:23:20.234Z,21.62
2018-10-11T11:26:23.210Z,22.14
2018-10-11T11:29:26.129Z,22.28
2018-10-11T11:32:29.129Z,22.64
2018-10-11T11:35:32.069Z,22.04
2018-10-11T11:38:35.122Z,22.27
2018-10-11T11:41:38.410Z,21.94
2018-10-11T11:44:41.665Z,22.19
2018-10-11T11:47:44.712Z,21.93
2018-10-11T11:50:47.931Z,22.16
2018-10-11T11:53:51.076Z,22.42
2018-10-11T11:56:54.029Z,22.73
2018-10-11T11:59:56.947Z,22.33
2018-10-11T12:03:00.537Z,21.94
2018-10-11T12:06:03.737Z,21.71
2018-10-11T12:09:12.644Z,22.76
2018-10-11T12:12:59.982Z,22.80
2018-10-11T12:16:02.979Z,22.34
2018-10-11T12:19:07.581Z,22.19
2018-10-11T12:22:11.153Z,21.59
2018-10-11T12:25:14.178Z,21.68
2018-10-11T12:28:17.246Z,21.08
2018-10-11T12:31:20.456Z,21.60
2018-10-11T12:34:23.545Z,21.95
2018-10-11T12:37:26.745Z,21.86
2018-10-11T12:40:29.682Z,21.64
2018-10-11T12:43:32.726Z,21.77
2018-10-11T12:46:36.890Z,21.29
2018-10-11T12:49:41.643Z,21.99
2018-10-11T12:52:42.287Z,21.95
2018-10-11T12:55:45.591Z,21.47
2018-10-11T12:58:48.609Z,22.49
2018-10-11T13:01:51.933Z,22.40
2018-10-11T13:04:54.908Z,23.15
2018-10-11T13:07:57.910Z,22.37
2018-10-11T13:11:00.869Z,22.96
2018-10-11T13:14:03.809Z,22.97
2018-10-11T13:17:07.037Z,23.27
2018-10-11T13:20:10.494Z,23.05
2018-10-11T13:23:17.927Z,23.44
2018-10-11T13:26:16.810Z,23.32
2018-10-11T13:29:20.172Z,22.98
2018-10-11T13:32:23.350Z,22.59
2018-10-11T13:35:26.650Z,22.28
2018-10-11T13:38:29.640Z,22.99
2018-10-11T13:41:32.914Z,22.76
2018-10-11T13:44:35.830Z,22.76
2018-10-11T13:47:42.326Z,22.29
2018-10-11T13:50:42.004Z,21.98
2018-10-11T13:53:48.235Z,22.05
2018-10-11T13:56:53.880Z,21.65
2018-10-11T13:59:52.123Z,22.13
2018-10-11T14:02:55.462Z,21.99
2018-10-11T14:05:58.659Z,21.33
2018-10-11T14:09:02.502Z,21.33
2018-10-11T14:12:05.992Z,21.08
2018-10-11T14:15:09.292Z,20.95
2018-10-11T14:18:13.809Z,20.85
2018-10-11T14:21:16.988Z,20.86
2018-10-11T14:24:20.356Z,20.75
2018-10-11T14:27:23.729Z,20.72
2018-10-11T14:30:27.440Z,20.68
2018-10-11T14:33:30.693Z,20.77
2018-10-11T14:36:34.098Z,20.88
2018-10-11T14:39:37.361Z,21.10
2018-10-11T14:42:41.081Z,21.03
2018-10-11T14:45:44.267Z,20.98
2018-10-11T14:48:47.162Z,21.02
2018-10-11T14:51:50.149Z,20.95
2018-10-11T14:54:53.232Z,20.65
2018-10-11T14:57:56.166Z,20.50
2018-10-11T15:00:59.165Z,20.39
2018-10-11T15:04:02.127Z,20.37
2018-10-11T15:07:05.186Z,20.29
2018-10-11T15:10:08.317Z,20.13
2018-10-11T15:13:11.254Z,20.11
2018-10-11T15:16:14.313Z,20.12
2018-10-11T15:19:17.242Z,20.06
2018-10-11T15:22:20.234Z,20.03
2018-10-11T15:25:23.258Z,20.03
2018-10-11T15:28:26.322Z,20.09
2018-10-11T15:31:29.331Z,19.97
2018-10-11T15:34:32.265Z,19.84
2018-10-11T15:37:35.382Z,19.78
2018-10-11T15:40:38.439Z,19.71
2018-10-11T15:43:41.518Z,19.75
2018-10-11T15:46:44.482Z,19.70
2018-10-11T15:49:47.456Z,19.60
2018-10-11T15:52:50.414Z,19.61
2018-10-11T15:55:53.413Z,19.56
2018-10-11T15:58:56.910Z,19.56
2018-10-11T16:01:59.965Z,19.45
2018-10-11T16:05:03.078Z,19.34
2018-10-11T16:08:05.990Z,19.35
2018-10-11T16:11:08.999Z,19.26
2018-10-11T16:14:12.013Z,19.76
2018-10-11T16:17:15.082Z,19.95
2018-10-11T16:20:18.085Z,19.45
2018-10-11T16:23:21.027Z,19.36
2018-10-11T16:26:24.009Z,19.22
2018-10-11T16:29:26.987Z,19.23
2018-10-11T16:32:31.125Z,19.13
2018-10-11T16:35:34.088Z,19.13
2018-10-11T16:38:37.308Z,19.06
2018-10-11T16:41:40.334Z,19.03
2018-10-11T16:44:43.296Z,19.03
2018-10-11T16:47:46.246Z,19.01
2018-10-11T16:50:49.334Z,18.91
2018-10-11T16:53:52.281Z,18.94
2018-10-11T16:56:55.265Z,18.92
2018-10-11T16:59:58.213Z,18.96
2018-10-11T17:03:01.149Z,18.92
2018-10-11T17:06:04.194Z,18.97
2018-10-11T17:09:09.109Z,18.88
2018-10-11T17:12:12.057Z,18.91
2018-10-11T17:15:15.039Z,18.79
2018-10-11T17:18:18.120Z,18.78
2018-10-11T17:21:21.127Z,18.72
2018-10-11T17:24:24.224Z,18.78
2018-10-11T17:27:27.209Z,18.73
2018-10-11T17:30:30.217Z,18.81
2018-10-11T17:33:33.285Z,18.79
2018-10-11T17:36:36.289Z,18.68
2018-10-11T17:39:39.292Z,18.85
2018-10-11T17:42:42.787Z,18.92
2018-10-11T17:45:45.803Z,19.20
2018-10-11T17:48:48.837Z,19.23
2018-10-11T17:51:51.817Z,19.34
2018-10-11T17:54:56.965Z,19.34
2018-10-11T17:57:59.998Z,19.38
2018-10-11T18:01:03.798Z,19.37
2018-10-11T18:04:06.810Z,19.53
2018-10-11T18:07:10.337Z,19.49
2018-10-11T18:10:13.636Z,19.58
2018-10-11T18:13:16.722Z,19.55
2018-10-11T18:16:20.347Z,19.50
2018-10-11T18:19:23.546Z,19.64
2018-10-11T18:22:27.572Z,19.56
2018-10-11T18:25:30.549Z,19.60
2018-10-11T18:28:34.422Z,19.64
2018-10-11T18:31:37.992Z,19.64
2018-10-11T18:34:41.516Z,19.60
2018-10-11T18:37:44.605Z,19.60
2018-10-11T18:40:47.969Z,19.62
2018-10-11T18:43:51.335Z,19.59
2018-10-11T18:46:54.577Z,19.49
2018-10-11T18:49:58.340Z,19.52
2018-10-11T18:53:01.908Z,19.54
2018-10-11T18:56:05.443Z,19.49
2018-10-11T18:59:09.346Z,19.53
2018-10-11T19:02:12.605Z,19.45
2018-10-11T19:05:19.928Z,19.44
2018-10-11T19:08:23.610Z,19.44
2018-10-11T19:11:26.965Z,19.45
2018-10-11T19:14:30.745Z,19.44
2018-10-11T19:17:34.653Z,19.44
2018-10-11T19:20:38.282Z,19.43
2018-10-11T19:23:41.327Z,19.32
2018-10-11T19:26:45.106Z,19.37
2018-10-11T19:29:48.432Z,19.27
2018-10-11T19:32:52.398Z,19.25
2018-10-11T19:35:56.190Z,19.14
2018-10-11T19:38:59.221Z,19.08
2018-10-11T19:42:02.786Z,19.01
2018-10-11T19:45:06.697Z,19.00
2018-10-11T19:48:10.225Z,19.08
2018-10-11T19:51:13.757Z,18.99
2018-10-11T19:54:17.421Z,19.03
2018-10-11T19:57:21.912Z,18.94
2018-10-11T20:00:25.421Z,18.98
2018-10-11T20:03:29.582Z,19.00
2018-10-11T20:06:32.986Z,18.98
2018-10-11T20:09:36.583Z,18.94
2018-10-11T20:12:41.244Z,19.08
2018-10-11T20:15:45.053Z,19.08
2018-10-11T20:18:48.389Z,19.10
2018-10-11T20:21:51.881Z,19.16
2018-10-11T20:24:54.874Z,19.21
2018-10-11T20:28:01.587Z,19.26
2018-10-11T20:31:05.432Z,19.24
2018-10-11T20:34:09.216Z,19.15
2018-10-11T20:37:12.789Z,19.26
2018-10-11T20:40:15.805Z,19.30
2018-10-11T20:43:18.791Z,19.30
2018-10-11T20:46:21.858Z,19.24
2018-10-11T20:49:24.873Z,19.11
2018-10-11T20:52:27.947Z,19.11
2018-10-11T20:55:30.967Z,19.13
2018-10-11T20:58:33.886Z,19.10
2018-10-11T21:01:36.880Z,19.01
2018-10-11T21:04:39.841Z,19.05
2018-10-11T21:07:43.685Z,19.03
2018-10-11T21:10:46.609Z,19.01
2018-10-11T21:13:51.055Z,19.02
2018-10-11T21:16:55.418Z,19.06
2018-10-11T21:19:59.065Z,19.03
2018-10-11T21:23:02.103Z,19.02
2018-10-11T21:26:05.127Z,18.99
2018-10-11T21:29:08.043Z,18.87
2018-10-11T21:32:11.253Z,19.00
2018-10-11T21:35:14.177Z,19.02
2018-10-11T21:38:17.119Z,18.91
2018-10-11T21:41:20.093Z,18.94
2018-10-11T21:44:23.031Z,19.05
2018-10-11T21:47:25.980Z,18.93
2018-10-11T21:50:28.911Z,19.01
2018-10-11T21:53:31.775Z,19.01
2018-10-11T21:56:34.721Z,18.80
2018-10-11T21:59:37.752Z,18.84
2018-10-11T22:02:40.710Z,19.00
2018-10-11T22:05:43.684Z,18.92
2018-10-11T22:08:46.624Z,18.94
2018-10-11T22:11:49.605Z,19.04
2018-10-11T22:14:52.546Z,18.98
2018-10-11T22:17:55.465Z,19.11
2018-10-11T22:20:58.470Z,19.06
2018-10-11T22:24:01.335Z,18.99
2018-10-11T22:27:04.414Z,18.87
2018-10-11T22:30:07.547Z,18.76
2018-10-11T22:33:10.513Z,18.84
2018-10-11T22:36:13.416Z,18.66
2018-10-11T22:39:16.408Z,18.73
2018-10-11T22:42:19.375Z,18.61
2018-10-11T22:45:22.632Z,18.54
2018-10-11T22:48:25.541Z,18.53
2018-10-11T22:51:28.575Z,18.66
2018-10-11T22:54:31.550Z,18.61
2018-10-11T22:57:34.490Z,18.62
2018-10-11T23:00:37.487Z,18.62
2018-10-11T23:03:40.408Z,18.61
2018-10-11T23:06:43.337Z,18.59
2018-10-11T23:09:46.258Z,18.66
2018-10-11T23:12:49.130Z,18.54
2018-10-11T23:15:52.053Z,18.62
2018-10-11T23:18:54.954Z,18.46
2018-10-11T23:21:57.882Z,18.61
2018-10-11T23:25:00.860Z,18.75
2018-10-11T23:28:03.869Z,18.88
2018-10-11T23:31:07.348Z,18.88
2018-10-11T23:34:10.265Z,18.90
2018-10-11T23:37:13.182Z,18.90
2018-10-11T23:40:16.113Z,18.95
2018-10-11T23:43:19.061Z,18.98
2018-10-11T23:46:21.979Z,19.09
2018-10-11T23:49:24.905Z,18.99
2018-10-11T23:52:27.782Z,18.83
2018-10-11T23:55:31.563Z,18.94
2018-10-11T23:58:34.544Z,19.05
